sensor_id;sensor_type;location;lat;lon;timestamp;P1;durP1;ratioP1;P2;durP2;ratioP2
76636;SDS011;65532;52.124;5.480;2023-04-01T00:01:12;5.20;;;3.33;;
76636;SDS011;65532;52.124;5.480;2023-04-01T00:03:40;9.90;;;3.97;;
76636;SDS011;65532;52.124;5.480;2023-04-01T00:06:08;10.73;;;4.03;;
76636;SDS011;65532;52.124;5.480;2023-04-01T00:08:38;11.60;;;4.80;;
76636;SDS011;65532;52.124;5.480;2023-04-01T00:11:05;9.10;;;3.05;;
76636;SDS011;65532;52.124;5.480;2023-04-01T00:13:31;9.60;;;4.22;;
76636;SDS011;65532;52.124;5.480;2023-04-01T00:15:58;11.73;;;4.03;;
76636;SDS011;65532;52.124;5.480;2023-04-01T00:18:25;15.55;;;4.38;;
76636;SDS011;65532;52.124;5.480;2023-04-01T00:20:52;12.50;;;3.72;;
76636;SDS011;65532;52.124;5.480;2023-04-01T00:23:19;11.50;;;3.95;;
76636;SDS011;65532;52.124;5.480;2023-04-01T00:25:47;10.40;;;4.60;;
76636;SDS011;65532;52.124;5.480;2023-04-01T00:28:17;13.75;;;3.55;;
76636;SDS011;65532;52.124;5.480;2023-04-01T00:30:46;8.18;;;2.80;;
76636;SDS011;65532;52.124;5.480;2023-04-01T00:33:13;9.43;;;3.25;;
76636;SDS011;65532;52.124;5.480;2023-04-01T00:35:39;10.18;;;4.68;;
76636;SDS011;65532;52.124;5.480;2023-04-01T00:38:06;8.48;;;3.55;;
76636;SDS011;65532;52.124;5.480;2023-04-01T00:40:38;10.52;;;4.72;;
76636;SDS011;65532;52.124;5.480;2023-04-01T00:43:14;10.23;;;3.33;;
76636;SDS011;65532;52.124;5.480;2023-04-01T00:45:45;15.77;;;5.03;;
76636;SDS011;65532;52.124;5.480;2023-04-01T00:48:17;14.98;;;4.00;;
76636;SDS011;65532;52.124;5.480;2023-04-01T00:50:50;10.00;;;4.03;;
76636;SDS011;65532;52.124;5.480;2023-04-01T00:53:21;14.80;;;5.60;;
76636;SDS011;65532;52.124;5.480;2023-04-01T00:55:50;15.85;;;4.95;;
76636;SDS011;65532;52.124;5.480;2023-04-01T00:58:24;11.30;;;6.25;;
76636;SDS011;65532;52.124;5.480;2023-04-01T01:00:56;13.88;;;5.60;;
76636;SDS011;65532;52.124;5.480;2023-04-01T01:03:25;10.27;;;5.50;;
76636;SDS011;65532;52.124;5.480;2023-04-01T01:11:02;15.88;;;5.78;;
76636;SDS011;65532;52.124;5.480;2023-04-01T01:13:36;14.48;;;6.60;;
76636;SDS011;65532;52.124;5.480;2023-04-01T01:16:29;14.70;;;6.82;;
76636;SDS011;65532;52.124;5.480;2023-04-01T01:19:06;13.35;;;5.55;;
76636;SDS011;65532;52.124;5.480;2023-04-01T01:24:41;15.43;;;8.02;;
76636;SDS011;65532;52.124;5.480;2023-04-01T01:27:19;18.70;;;6.90;;
76636;SDS011;65532;52.124;5.480;2023-04-01T01:33:03;17.60;;;7.82;;
76636;SDS011;65532;52.124;5.480;2023-04-01T01:35:49;15.60;;;4.93;;
76636;SDS011;65532;52.124;5.480;2023-04-01T01:38:21;11.07;;;4.60;;
76636;SDS011;65532;52.124;5.480;2023-04-01T01:40:58;15.15;;;6.15;;
76636;SDS011;65532;52.124;5.480;2023-04-01T01:43:29;13.00;;;6.32;;
76636;SDS011;65532;52.124;5.480;2023-04-01T01:46:00;13.57;;;5.95;;
76636;SDS011;65532;52.124;5.480;2023-04-01T01:48:33;14.18;;;4.50;;
76636;SDS011;65532;52.124;5.480;2023-04-01T01:51:01;7.93;;;3.80;;
76636;SDS011;65532;52.124;5.480;2023-04-01T01:53:27;6.75;;;2.72;;
76636;SDS011;65532;52.124;5.480;2023-04-01T01:55:54;8.52;;;3.20;;
76636;SDS011;65532;52.124;5.480;2023-04-01T02:00:58;12.10;;;4.50;;
76636;SDS011;65532;52.124;5.480;2023-04-01T02:03:28;11.88;;;4.97;;
76636;SDS011;65532;52.124;5.480;2023-04-01T02:05:59;9.90;;;3.28;;
76636;SDS011;65532;52.124;5.480;2023-04-01T02:08:33;5.97;;;2.00;;
76636;SDS011;65532;52.124;5.480;2023-04-01T02:11:03;6.53;;;1.77;;
76636;SDS011;65532;52.124;5.480;2023-04-01T02:13:45;4.00;;;2.45;;
76636;SDS011;65532;52.124;5.480;2023-04-01T02:16:34;3.55;;;1.95;;
76636;SDS011;65532;52.124;5.480;2023-04-01T02:19:06;4.55;;;2.13;;
76636;SDS011;65532;52.124;5.480;2023-04-01T02:21:35;3.95;;;1.13;;
76636;SDS011;65532;52.124;5.480;2023-04-01T02:24:04;4.78;;;1.83;;
76636;SDS011;65532;52.124;5.480;2023-04-01T02:26:34;6.00;;;1.98;;
76636;SDS011;65532;52.124;5.480;2023-04-01T02:29:01;5.70;;;2.50;;
76636;SDS011;65532;52.124;5.480;2023-04-01T02:31:31;3.55;;;2.70;;
76636;SDS011;65532;52.124;5.480;2023-04-01T02:33:59;4.32;;;1.15;;
76636;SDS011;65532;52.124;5.480;2023-04-01T02:36:26;3.05;;;1.60;;
76636;SDS011;65532;52.124;5.480;2023-04-01T02:38:53;5.15;;;1.10;;
76636;SDS011;65532;52.124;5.480;2023-04-01T02:41:22;6.10;;;1.50;;
76636;SDS011;65532;52.124;5.480;2023-04-01T02:43:48;4.57;;;2.10;;
76636;SDS011;65532;52.124;5.480;2023-04-01T02:46:15;5.10;;;1.63;;
76636;SDS011;65532;52.124;5.480;2023-04-01T02:48:43;5.50;;;3.58;;
76636;SDS011;65532;52.124;5.480;2023-04-01T02:51:09;4.28;;;2.65;;
76636;SDS011;65532;52.124;5.480;2023-04-01T02:53:36;6.88;;;2.47;;
76636;SDS011;65532;52.124;5.480;2023-04-01T02:56:02;4.10;;;2.05;;
76636;SDS011;65532;52.124;5.480;2023-04-01T02:58:29;7.28;;;2.22;;
76636;SDS011;65532;52.124;5.480;2023-04-01T03:00:56;5.35;;;2.97;;
76636;SDS011;65532;52.124;5.480;2023-04-01T03:03:22;4.05;;;1.38;;
76636;SDS011;65532;52.124;5.480;2023-04-01T03:05:49;4.20;;;2.50;;
76636;SDS011;65532;52.124;5.480;2023-04-01T03:08:15;5.97;;;3.03;;
76636;SDS011;65532;52.124;5.480;2023-04-01T03:10:42;6.00;;;2.92;;
76636;SDS011;65532;52.124;5.480;2023-04-01T03:13:08;5.60;;;1.10;;
76636;SDS011;65532;52.124;5.480;2023-04-01T03:15:35;4.60;;;1.40;;
76636;SDS011;65532;52.124;5.480;2023-04-01T03:18:02;4.82;;;1.38;;
76636;SDS011;65532;52.124;5.480;2023-04-01T03:20:29;5.38;;;2.05;;
76636;SDS011;65532;52.124;5.480;2023-04-01T03:22:56;4.22;;;1.90;;
76636;SDS011;65532;52.124;5.480;2023-04-01T03:25:23;4.10;;;2.20;;
76636;SDS011;65532;52.124;5.480;2023-04-01T03:27:49;4.28;;;0.82;;
76636;SDS011;65532;52.124;5.480;2023-04-01T03:30:16;4.72;;;2.15;;
76636;SDS011;65532;52.124;5.480;2023-04-01T03:32:48;5.78;;;2.22;;
76636;SDS011;65532;52.124;5.480;2023-04-01T03:35:15;4.78;;;1.98;;
76636;SDS011;65532;52.124;5.480;2023-04-01T03:37:42;4.78;;;2.55;;
76636;SDS011;65532;52.124;5.480;2023-04-01T03:40:08;7.72;;;2.50;;
76636;SDS011;65532;52.124;5.480;2023-04-01T03:42:36;6.30;;;2.72;;
76636;SDS011;65532;52.124;5.480;2023-04-01T03:45:03;4.70;;;2.03;;
76636;SDS011;65532;52.124;5.480;2023-04-01T03:47:30;3.55;;;1.20;;
76636;SDS011;65532;52.124;5.480;2023-04-01T03:49:57;3.95;;;1.90;;
76636;SDS011;65532;52.124;5.480;2023-04-01T03:52:24;3.03;;;2.42;;
76636;SDS011;65532;52.124;5.480;2023-04-01T03:54:51;5.13;;;2.20;;
76636;SDS011;65532;52.124;5.480;2023-04-01T03:57:18;4.95;;;1.30;;
76636;SDS011;65532;52.124;5.480;2023-04-01T03:59:44;6.07;;;2.42;;
76636;SDS011;65532;52.124;5.480;2023-04-01T04:02:11;5.03;;;1.88;;
76636;SDS011;65532;52.124;5.480;2023-04-01T04:04:37;5.32;;;2.42;;
76636;SDS011;65532;52.124;5.480;2023-04-01T04:07:04;9.05;;;2.25;;
76636;SDS011;65532;52.124;5.480;2023-04-01T04:09:46;7.68;;;4.10;;
76636;SDS011;65532;52.124;5.480;2023-04-01T04:12:13;8.30;;;4.20;;
76636;SDS011;65532;52.124;5.480;2023-04-01T04:14:40;11.95;;;3.90;;
76636;SDS011;65532;52.124;5.480;2023-04-01T04:17:07;8.35;;;4.13;;
76636;SDS011;65532;52.124;5.480;2023-04-01T04:19:39;8.82;;;3.33;;
76636;SDS011;65532;52.124;5.480;2023-04-01T04:22:06;10.15;;;3.67;;
76636;SDS011;65532;52.124;5.480;2023-04-01T04:24:36;9.23;;;5.55;;
76636;SDS011;65532;52.124;5.480;2023-04-01T04:27:07;7.93;;;4.60;;
76636;SDS011;65532;52.124;5.480;2023-04-01T04:29:40;8.85;;;3.00;;
76636;SDS011;65532;52.124;5.480;2023-04-01T04:32:06;8.02;;;2.95;;
76636;SDS011;65532;52.124;5.480;2023-04-01T04:34:33;9.48;;;3.40;;
76636;SDS011;65532;52.124;5.480;2023-04-01T04:37:00;8.48;;;3.00;;
76636;SDS011;65532;52.124;5.480;2023-04-01T04:41:56;9.88;;;3.53;;
76636;SDS011;65532;52.124;5.480;2023-04-01T04:44:23;8.27;;;4.22;;
76636;SDS011;65532;52.124;5.480;2023-04-01T04:46:49;7.63;;;3.30;;
76636;SDS011;65532;52.124;5.480;2023-04-01T04:49:16;7.18;;;2.92;;
76636;SDS011;65532;52.124;5.480;2023-04-01T04:51:43;10.65;;;4.68;;
76636;SDS011;65532;52.124;5.480;2023-04-01T04:54:11;8.20;;;4.07;;
76636;SDS011;65532;52.124;5.480;2023-04-01T04:56:57;6.25;;;2.35;;
76636;SDS011;65532;52.124;5.480;2023-04-01T04:59:26;7.13;;;3.97;;
76636;SDS011;65532;52.124;5.480;2023-04-01T05:02:01;8.85;;;3.28;;
76636;SDS011;65532;52.124;5.480;2023-04-01T05:04:28;6.15;;;3.03;;
76636;SDS011;65532;52.124;5.480;2023-04-01T05:06:55;6.45;;;3.28;;
76636;SDS011;65532;52.124;5.480;2023-04-01T05:09:22;6.53;;;2.88;;
76636;SDS011;65532;52.124;5.480;2023-04-01T05:11:49;4.75;;;2.40;;
76636;SDS011;65532;52.124;5.480;2023-04-01T05:14:17;6.78;;;2.22;;
76636;SDS011;65532;52.124;5.480;2023-04-01T05:16:52;4.50;;;1.40;;
76636;SDS011;65532;52.124;5.480;2023-04-01T05:19:20;4.97;;;2.10;;
76636;SDS011;65532;52.124;5.480;2023-04-01T05:21:47;6.00;;;2.65;;
76636;SDS011;65532;52.124;5.480;2023-04-01T05:24:14;6.57;;;3.03;;
76636;SDS011;65532;52.124;5.480;2023-04-01T05:26:41;6.38;;;2.45;;
76636;SDS011;65532;52.124;5.480;2023-04-01T05:29:08;4.88;;;2.80;;
76636;SDS011;65532;52.124;5.480;2023-04-01T05:31:34;8.98;;;1.50;;
76636;SDS011;65532;52.124;5.480;2023-04-01T05:34:02;4.32;;;1.42;;
76636;SDS011;65532;52.124;5.480;2023-04-01T05:36:29;3.83;;;1.30;;
76636;SDS011;65532;52.124;5.480;2023-04-01T05:38:56;3.30;;;1.88;;
76636;SDS011;65532;52.124;5.480;2023-04-01T05:41:24;4.65;;;2.05;;
76636;SDS011;65532;52.124;5.480;2023-04-01T05:43:51;5.93;;;3.03;;
76636;SDS011;65532;52.124;5.480;2023-04-01T05:46:37;5.38;;;2.05;;
76636;SDS011;65532;52.124;5.480;2023-04-01T05:49:17;5.07;;;2.40;;
76636;SDS011;65532;52.124;5.480;2023-04-01T05:51:43;5.50;;;2.92;;
76636;SDS011;65532;52.124;5.480;2023-04-01T05:54:10;4.38;;;2.28;;
76636;SDS011;65532;52.124;5.480;2023-04-01T05:56:37;4.90;;;1.45;;
76636;SDS011;65532;52.124;5.480;2023-04-01T05:59:04;4.95;;;2.88;;
76636;SDS011;65532;52.124;5.480;2023-04-01T06:01:31;5.63;;;2.53;;
76636;SDS011;65532;52.124;5.480;2023-04-01T06:03:57;5.75;;;1.08;;
76636;SDS011;65532;52.124;5.480;2023-04-01T06:06:26;4.22;;;1.42;;
76636;SDS011;65532;52.124;5.480;2023-04-01T06:09:05;2.47;;;1.20;;
76636;SDS011;65532;52.124;5.480;2023-04-01T06:14:33;4.22;;;1.42;;
76636;SDS011;65532;52.124;5.480;2023-04-01T06:20:08;3.58;;;1.23;;
76636;SDS011;65532;52.124;5.480;2023-04-01T06:31:14;4.60;;;0.90;;
76636;SDS011;65532;52.124;5.480;2023-04-01T06:33:52;3.65;;;1.08;;
76636;SDS011;65532;52.124;5.480;2023-04-01T06:42:05;3.72;;;1.83;;
76636;SDS011;65532;52.124;5.480;2023-04-01T06:53:34;3.50;;;1.30;;
76636;SDS011;65532;52.124;5.480;2023-04-01T06:56:42;2.92;;;1.02;;
76636;SDS011;65532;52.124;5.480;2023-04-01T06:59:19;3.78;;;1.30;;
76636;SDS011;65532;52.124;5.480;2023-04-01T07:01:52;2.10;;;0.75;;
76636;SDS011;65532;52.124;5.480;2023-04-01T07:04:43;2.50;;;0.88;;
76636;SDS011;65532;52.124;5.480;2023-04-01T07:07:21;2.13;;;0.80;;
76636;SDS011;65532;52.124;5.480;2023-04-01T07:09:59;1.92;;;1.63;;
76636;SDS011;65532;52.124;5.480;2023-04-01T07:15:19;1.88;;;0.70;;
76636;SDS011;65532;52.124;5.480;2023-04-01T07:17:54;1.83;;;0.38;;
76636;SDS011;65532;52.124;5.480;2023-04-01T07:20:32;1.88;;;0.60;;
76636;SDS011;65532;52.124;5.480;2023-04-01T07:23:03;2.40;;;1.23;;
76636;SDS011;65532;52.124;5.480;2023-04-01T07:25:51;3.40;;;0.88;;
76636;SDS011;65532;52.124;5.480;2023-04-01T07:28:43;3.63;;;0.73;;
76636;SDS011;65532;52.124;5.480;2023-04-01T07:40:30;3.22;;;1.42;;
76636;SDS011;65532;52.124;5.480;2023-04-01T07:46:19;6.43;;;2.13;;
76636;SDS011;65532;52.124;5.480;2023-04-01T07:52:03;4.65;;;2.20;;
76636;SDS011;65532;52.124;5.480;2023-04-01T07:57:37;4.50;;;1.65;;
76636;SDS011;65532;52.124;5.480;2023-04-01T08:03:21;5.32;;;1.15;;
76636;SDS011;65532;52.124;5.480;2023-04-01T08:06:19;2.78;;;0.85;;
76636;SDS011;65532;52.124;5.480;2023-04-01T08:17:58;2.78;;;0.40;;
76636;SDS011;65532;52.124;5.480;2023-04-01T08:20:40;4.57;;;0.88;;
76636;SDS011;65532;52.124;5.480;2023-04-01T08:23:14;4.53;;;1.33;;
76636;SDS011;65532;52.124;5.480;2023-04-01T08:25:52;4.15;;;1.02;;
76636;SDS011;65532;52.124;5.480;2023-04-01T08:31:12;3.95;;;1.00;;
76636;SDS011;65532;52.124;5.480;2023-04-01T08:33:44;4.07;;;1.38;;
76636;SDS011;65532;52.124;5.480;2023-04-01T08:36:15;5.65;;;1.40;;
76636;SDS011;65532;52.124;5.480;2023-04-01T08:38:54;6.57;;;2.47;;
76636;SDS011;65532;52.124;5.480;2023-04-01T09:05:08;5.30;;;1.65;;
76636;SDS011;65532;52.124;5.480;2023-04-01T09:22:47;5.65;;;2.22;;
76636;SDS011;65532;52.124;5.480;2023-04-01T09:39:18;6.30;;;3.13;;
76636;SDS011;65532;52.124;5.480;2023-04-01T09:41:57;4.97;;;1.83;;
76636;SDS011;65532;52.124;5.480;2023-04-01T09:56:08;6.22;;;3.60;;
76636;SDS011;65532;52.124;5.480;2023-04-01T10:16:12;6.80;;;1.50;;
76636;SDS011;65532;52.124;5.480;2023-04-01T10:19:07;5.93;;;2.17;;
76636;SDS011;65532;52.124;5.480;2023-04-01T10:21:59;6.05;;;3.08;;
76636;SDS011;65532;52.124;5.480;2023-04-01T10:51:16;6.40;;;2.58;;
76636;SDS011;65532;52.124;5.480;2023-04-01T10:53:37;5.47;;;1.40;;
76636;SDS011;65532;52.124;5.480;2023-04-01T10:56:33;5.35;;;2.90;;
76636;SDS011;65532;52.124;5.480;2023-04-01T10:59:28;3.53;;;1.23;;
76636;SDS011;65532;52.124;5.480;2023-04-01T11:02:33;3.30;;;1.73;;
76636;SDS011;65532;52.124;5.480;2023-04-01T11:09:05;3.53;;;1.75;;
76636;SDS011;65532;52.124;5.480;2023-04-01T11:12:09;4.30;;;2.63;;
76636;SDS011;65532;52.124;5.480;2023-04-01T11:23:10;2.75;;;0.93;;
76636;SDS011;65532;52.124;5.480;2023-04-01T11:31:47;1.05;;;0.10;;
76636;SDS011;65532;52.124;5.480;2023-04-01T11:37:48;2.33;;;1.00;;
76636;SDS011;65532;52.124;5.480;2023-04-01T11:40:37;2.15;;;0.52;;
76636;SDS011;65532;52.124;5.480;2023-04-01T11:43:34;1.92;;;0.93;;
76636;SDS011;65532;52.124;5.480;2023-04-01T11:49:25;2.63;;;0.68;;
76636;SDS011;65532;52.124;5.480;2023-04-01T11:52:13;1.85;;;0.40;;
76636;SDS011;65532;52.124;5.480;2023-04-01T11:54:56;1.20;;;0.55;;
76636;SDS011;65532;52.124;5.480;2023-04-01T11:57:51;1.60;;;1.40;;
76636;SDS011;65532;52.124;5.480;2023-04-01T12:11:48;1.38;;;0.20;;
76636;SDS011;65532;52.124;5.480;2023-04-01T12:17:55;2.10;;;1.00;;
76636;SDS011;65532;52.124;5.480;2023-04-01T12:23:28;2.42;;;0.52;;
76636;SDS011;65532;52.124;5.480;2023-04-01T12:32:25;4.05;;;2.45;;
76636;SDS011;65532;52.124;5.480;2023-04-01T12:35:15;6.00;;;2.67;;
76636;SDS011;65532;52.124;5.480;2023-04-01T12:46:08;5.22;;;1.75;;
76636;SDS011;65532;52.124;5.480;2023-04-01T12:48:46;7.63;;;2.95;;
76636;SDS011;65532;52.124;5.480;2023-04-01T12:51:34;5.07;;;2.05;;
76636;SDS011;65532;52.124;5.480;2023-04-01T13:00:09;6.90;;;2.45;;
76636;SDS011;65532;52.124;5.480;2023-04-01T13:11:08;6.75;;;3.95;;
76636;SDS011;65532;52.124;5.480;2023-04-01T13:16:26;9.10;;;3.63;;
76636;SDS011;65532;52.124;5.480;2023-04-01T13:18:57;8.15;;;3.85;;
76636;SDS011;65532;52.124;5.480;2023-04-01T13:21:55;6.22;;;2.28;;
76636;SDS011;65532;52.124;5.480;2023-04-01T13:24:25;7.40;;;3.80;;
76636;SDS011;65532;52.124;5.480;2023-04-01T13:32:46;5.50;;;2.47;;
76636;SDS011;65532;52.124;5.480;2023-04-01T13:35:34;4.43;;;1.65;;
76636;SDS011;65532;52.124;5.480;2023-04-01T13:41:10;4.45;;;0.77;;
76636;SDS011;65532;52.124;5.480;2023-04-01T13:52:29;3.90;;;1.98;;
76636;SDS011;65532;52.124;5.480;2023-04-01T14:00:50;3.47;;;1.90;;
76636;SDS011;65532;52.124;5.480;2023-04-01T14:03:30;4.75;;;1.38;;
76636;SDS011;65532;52.124;5.480;2023-04-01T14:25:15;6.13;;;1.88;;
76636;SDS011;65532;52.124;5.480;2023-04-01T14:28:04;4.50;;;2.22;;
76636;SDS011;65532;52.124;5.480;2023-04-01T14:33:43;3.75;;;1.05;;
76636;SDS011;65532;52.124;5.480;2023-04-01T14:36:29;3.80;;;2.10;;
76636;SDS011;65532;52.124;5.480;2023-04-01T14:45:25;3.85;;;1.10;;
76636;SDS011;65532;52.124;5.480;2023-04-01T14:57:03;5.53;;;1.98;;
76636;SDS011;65532;52.124;5.480;2023-04-01T14:59:40;4.93;;;2.63;;
76636;SDS011;65532;52.124;5.480;2023-04-01T15:02:18;3.25;;;0.85;;
76636;SDS011;65532;52.124;5.480;2023-04-01T15:08:05;3.42;;;0.90;;
76636;SDS011;65532;52.124;5.480;2023-04-01T15:19:12;4.38;;;1.83;;
76636;SDS011;65532;52.124;5.480;2023-04-01T15:21:49;5.32;;;1.90;;
76636;SDS011;65532;52.124;5.480;2023-04-01T15:24:26;4.60;;;2.05;;
76636;SDS011;65532;52.124;5.480;2023-04-01T15:30:23;4.25;;;2.65;;
76636;SDS011;65532;52.124;5.480;2023-04-01T15:33:06;1.55;;;0.43;;
76636;SDS011;65532;52.124;5.480;2023-04-01T15:38:29;2.33;;;1.30;;
76636;SDS011;65532;52.124;5.480;2023-04-01T15:41:07;2.78;;;1.55;;
76636;SDS011;65532;52.124;5.480;2023-04-01T15:43:49;3.22;;;1.10;;
76636;SDS011;65532;52.124;5.480;2023-04-01T15:46:21;3.60;;;1.70;;
76636;SDS011;65532;52.124;5.480;2023-04-01T16:00:23;3.42;;;1.88;;
76636;SDS011;65532;52.124;5.480;2023-04-01T16:11:08;3.65;;;1.85;;
76636;SDS011;65532;52.124;5.480;2023-04-01T16:16:47;1.83;;;0.70;;
76636;SDS011;65532;52.124;5.480;2023-04-01T16:24:57;3.55;;;2.13;;
76636;SDS011;65532;52.124;5.480;2023-04-01T16:27:41;1.50;;;0.80;;
76636;SDS011;65532;52.124;5.480;2023-04-01T16:30:25;5.47;;;2.65;;
76636;SDS011;65532;52.124;5.480;2023-04-01T16:38:33;2.65;;;0.93;;
76636;SDS011;65532;52.124;5.480;2023-04-01T16:41:13;2.80;;;0.90;;
76636;SDS011;65532;52.124;5.480;2023-04-01T16:43:48;4.57;;;1.42;;
76636;SDS011;65532;52.124;5.480;2023-04-01T16:54:28;2.42;;;1.33;;
76636;SDS011;65532;52.124;5.480;2023-04-01T16:59:48;3.92;;;2.00;;
76636;SDS011;65532;52.124;5.480;2023-04-01T17:02:20;4.80;;;2.60;;
76636;SDS011;65532;52.124;5.480;2023-04-01T17:05:11;4.50;;;3.78;;
76636;SDS011;65532;52.124;5.480;2023-04-01T17:07:49;2.85;;;1.20;;
76636;SDS011;65532;52.124;5.480;2023-04-01T17:10:49;3.83;;;2.28;;
76636;SDS011;65532;52.124;5.480;2023-04-01T17:22:26;3.95;;;1.67;;
76636;SDS011;65532;52.124;5.480;2023-04-01T17:28:19;3.17;;;0.80;;
76636;SDS011;65532;52.124;5.480;2023-04-01T17:39:18;3.50;;;2.22;;
76636;SDS011;65532;52.124;5.480;2023-04-01T17:42:22;4.70;;;2.17;;
76636;SDS011;65532;52.124;5.480;2023-04-01T17:45:17;4.07;;;1.70;;
76636;SDS011;65532;52.124;5.480;2023-04-01T17:50:30;4.57;;;2.58;;
76636;SDS011;65532;52.124;5.480;2023-04-01T17:58:49;5.68;;;1.10;;
76636;SDS011;65532;52.124;5.480;2023-04-01T18:12:05;3.17;;;1.80;;
76636;SDS011;65532;52.124;5.480;2023-04-01T18:20:20;2.25;;;1.17;;
76636;SDS011;65532;52.124;5.480;2023-04-01T18:22:55;4.45;;;2.58;;
76636;SDS011;65532;52.124;5.480;2023-04-01T18:25:44;3.50;;;2.08;;
76636;SDS011;65532;52.124;5.480;2023-04-01T18:28:31;3.08;;;1.02;;
76636;SDS011;65532;52.124;5.480;2023-04-01T18:33:29;3.75;;;1.50;;
76636;SDS011;65532;52.124;5.480;2023-04-01T18:38:40;2.22;;;1.40;;
76636;SDS011;65532;52.124;5.480;2023-04-01T18:41:15;5.90;;;1.33;;
76636;SDS011;65532;52.124;5.480;2023-04-01T18:44:00;3.53;;;2.00;;
76636;SDS011;65532;52.124;5.480;2023-04-01T18:47:03;3.90;;;1.55;;
76636;SDS011;65532;52.124;5.480;2023-04-01T18:52:34;3.97;;;2.58;;
76636;SDS011;65532;52.124;5.480;2023-04-01T18:57:46;2.58;;;1.45;;
76636;SDS011;65532;52.124;5.480;2023-04-01T19:02:58;5.53;;;2.30;;
76636;SDS011;65532;52.124;5.480;2023-04-01T19:08:33;2.45;;;0.82;;
76636;SDS011;65532;52.124;5.480;2023-04-01T19:14:06;3.97;;;1.63;;
76636;SDS011;65532;52.124;5.480;2023-04-01T19:16:46;5.55;;;3.00;;
76636;SDS011;65532;52.124;5.480;2023-04-01T19:22:33;2.13;;;0.77;;
76636;SDS011;65532;52.124;5.480;2023-04-01T19:25:12;3.38;;;1.23;;
76636;SDS011;65532;52.124;5.480;2023-04-01T19:27:53;3.28;;;0.77;;
76636;SDS011;65532;52.124;5.480;2023-04-01T19:39:10;3.85;;;2.53;;
76636;SDS011;65532;52.124;5.480;2023-04-01T19:45:00;4.75;;;1.52;;
76636;SDS011;65532;52.124;5.480;2023-04-01T19:47:56;2.97;;;1.55;;
76636;SDS011;65532;52.124;5.480;2023-04-01T19:50:39;5.43;;;1.70;;
76636;SDS011;65532;52.124;5.480;2023-04-01T19:56:02;4.55;;;2.55;;
76636;SDS011;65532;52.124;5.480;2023-04-01T19:59:01;4.85;;;2.95;;
76636;SDS011;65532;52.124;5.480;2023-04-01T20:01:42;1.77;;;0.68;;
76636;SDS011;65532;52.124;5.480;2023-04-01T20:04:16;6.63;;;2.88;;
76636;SDS011;65532;52.124;5.480;2023-04-01T20:07:00;4.22;;;2.35;;
76636;SDS011;65532;52.124;5.480;2023-04-01T20:09:43;5.47;;;3.35;;
76636;SDS011;65532;52.124;5.480;2023-04-01T20:17:53;4.05;;;2.08;;
76636;SDS011;65532;52.124;5.480;2023-04-01T20:20:24;7.28;;;4.28;;
76636;SDS011;65532;52.124;5.480;2023-04-01T20:25:57;5.57;;;3.33;;
76636;SDS011;65532;52.124;5.480;2023-04-01T20:28:30;5.97;;;3.60;;
76636;SDS011;65532;52.124;5.480;2023-04-01T20:50:34;6.20;;;3.67;;
76636;SDS011;65532;52.124;5.480;2023-04-01T20:53:21;4.85;;;2.45;;
76636;SDS011;65532;52.124;5.480;2023-04-01T20:56:13;6.00;;;2.38;;
76636;SDS011;65532;52.124;5.480;2023-04-01T21:07:04;8.45;;;4.28;;
76636;SDS011;65532;52.124;5.480;2023-04-01T21:12:09;7.32;;;3.78;;
76636;SDS011;65532;52.124;5.480;2023-04-01T21:15:50;5.72;;;3.08;;
76636;SDS011;65532;52.124;5.480;2023-04-01T21:26:01;3.70;;;2.38;;
76636;SDS011;65532;52.124;5.480;2023-04-01T21:28:35;6.22;;;2.17;;
76636;SDS011;65532;52.124;5.480;2023-04-01T21:45:46;6.75;;;4.07;;
76636;SDS011;65532;52.124;5.480;2023-04-01T21:53:42;8.27;;;5.05;;
76636;SDS011;65532;52.124;5.480;2023-04-01T22:05:15;4.80;;;2.20;;
76636;SDS011;65532;52.124;5.480;2023-04-01T22:07:51;6.88;;;3.70;;
76636;SDS011;65532;52.124;5.480;2023-04-01T22:13:20;6.03;;;3.88;;
76636;SDS011;65532;52.124;5.480;2023-04-01T22:19:11;7.57;;;4.18;;
76636;SDS011;65532;52.124;5.480;2023-04-01T22:24:55;5.85;;;3.13;;
76636;SDS011;65532;52.124;5.480;2023-04-01T22:30:08;6.05;;;3.20;;
76636;SDS011;65532;52.124;5.480;2023-04-01T22:32:48;4.07;;;1.63;;
76636;SDS011;65532;52.124;5.480;2023-04-01T22:43:55;7.50;;;4.75;;
76636;SDS011;65532;52.124;5.480;2023-04-01T22:46:26;9.25;;;5.80;;
76636;SDS011;65532;52.124;5.480;2023-04-01T22:54:54;5.35;;;2.85;;
76636;SDS011;65532;52.124;5.480;2023-04-01T23:00:00;4.95;;;3.20;;
76636;SDS011;65532;52.124;5.480;2023-04-01T23:03:40;7.75;;;3.05;;
76636;SDS011;65532;52.124;5.480;2023-04-01T23:05:35;6.60;;;2.78;;
76636;SDS011;65532;52.124;5.480;2023-04-01T23:11:00;8.15;;;3.40;;
76636;SDS011;65532;52.124;5.480;2023-04-01T23:13:39;6.38;;;3.88;;
76636;SDS011;65532;52.124;5.480;2023-04-01T23:16:11;9.30;;;5.00;;
76636;SDS011;65532;52.124;5.480;2023-04-01T23:18:46;6.90;;;4.22;;
76636;SDS011;65532;52.124;5.480;2023-04-01T23:21:16;8.43;;;4.75;;
76636;SDS011;65532;52.124;5.480;2023-04-01T23:23:52;9.65;;;5.20;;
76636;SDS011;65532;52.124;5.480;2023-04-01T23:26:25;9.77;;;5.15;;
76636;SDS011;65532;52.124;5.480;2023-04-01T23:29:02;6.03;;;3.70;;
76636;SDS011;65532;52.124;5.480;2023-04-01T23:36:41;6.25;;;4.43;;
76636;SDS011;65532;52.124;5.480;2023-04-01T23:39:23;6.65;;;3.92;;
76636;SDS011;65532;52.124;5.480;2023-04-01T23:42:23;11.07;;;5.85;;
76636;SDS011;65532;52.124;5.480;2023-04-01T23:44:51;7.28;;;3.83;;
76636;SDS011;65532;52.124;5.480;2023-04-01T23:47:22;3.92;;;2.33;;
76636;SDS011;65532;52.124;5.480;2023-04-01T23:49:55;8.63;;;3.95;;
76636;SDS011;65532;52.124;5.480;2023-04-01T23:52:29;7.45;;;3.47;;
76636;SDS011;65532;52.124;5.480;2023-04-01T23:57:40;8.70;;;4.07;;
